sensor_id;sensor_type;location;lat;lon;timestamp;P1;durP1;ratioP1;P2;durP2;ratioP2
20906;SDS011;10613;50.966;5.814;2023-06-22T00:01:48;6.00;;;6.00;;
20906;SDS011;10613;50.966;5.814;2023-06-22T00:05:55;6.75;;;6.75;;
20906;SDS011;10613;50.966;5.814;2023-06-22T00:10:03;6.00;;;6.00;;
20906;SDS011;10613;50.966;5.814;2023-06-22T00:14:10;4.50;;;4.50;;
20906;SDS011;10613;50.966;5.814;2023-06-22T00:18:17;4.50;;;4.50;;
20906;SDS011;10613;50.966;5.814;2023-06-22T00:22:24;5.00;;;5.00;;
20906;SDS011;10613;50.966;5.814;2023-06-22T00:26:35;6.00;;;6.00;;
20906;SDS011;10613;50.966;5.814;2023-06-22T00:30:43;4.50;;;4.00;;
20906;SDS011;10613;50.966;5.814;2023-06-22T00:34:52;5.25;;;5.00;;
20906;SDS011;10613;50.966;5.814;2023-06-22T00:38:59;4.25;;;4.25;;
20906;SDS011;10613;50.966;5.814;2023-06-22T00:43:06;4.00;;;4.00;;
20906;SDS011;10613;50.966;5.814;2023-06-22T00:47:13;5.00;;;5.00;;
20906;SDS011;10613;50.966;5.814;2023-06-22T00:51:21;8.25;;;6.50;;
20906;SDS011;10613;50.966;5.814;2023-06-22T00:55:31;4.00;;;4.00;;
20906;SDS011;10613;50.966;5.814;2023-06-22T00:59:38;5.50;;;5.00;;
20906;SDS011;10613;50.966;5.814;2023-06-22T01:03:46;5.25;;;4.25;;
20906;SDS011;10613;50.966;5.814;2023-06-22T01:08:12;4.75;;;4.50;;
20906;SDS011;10613;50.966;5.814;2023-06-22T01:12:21;4.00;;;4.00;;
20906;SDS011;10613;50.966;5.814;2023-06-22T01:16:29;4.00;;;4.00;;
20906;SDS011;10613;50.966;5.814;2023-06-22T01:20:36;4.00;;;4.00;;
20906;SDS011;10613;50.966;5.814;2023-06-22T01:29:27;5.00;;;5.00;;
20906;SDS011;10613;50.966;5.814;2023-06-22T01:33:35;4.25;;;4.25;;
20906;SDS011;10613;50.966;5.814;2023-06-22T01:37:43;4.00;;;4.00;;
20906;SDS011;10613;50.966;5.814;2023-06-22T01:41:52;7.00;;;5.00;;
20906;SDS011;10613;50.966;5.814;2023-06-22T01:46:00;4.25;;;4.25;;
20906;SDS011;10613;50.966;5.814;2023-06-22T01:50:08;4.00;;;4.00;;
20906;SDS011;10613;50.966;5.814;2023-06-22T01:54:15;4.25;;;4.25;;
20906;SDS011;10613;50.966;5.814;2023-06-22T01:58:23;5.75;;;4.75;;
20906;SDS011;10613;50.966;5.814;2023-06-22T02:02:33;4.75;;;4.75;;
20906;SDS011;10613;50.966;5.814;2023-06-22T02:06:42;5.75;;;5.75;;
20906;SDS011;10613;50.966;5.814;2023-06-22T02:10:49;6.00;;;6.00;;
20906;SDS011;10613;50.966;5.814;2023-06-22T02:14:57;7.00;;;7.00;;
20906;SDS011;10613;50.966;5.814;2023-06-22T02:19:04;5.00;;;5.00;;
20906;SDS011;10613;50.966;5.814;2023-06-22T02:23:12;5.50;;;5.00;;
20906;SDS011;10613;50.966;5.814;2023-06-22T02:27:19;5.25;;;5.25;;
20906;SDS011;10613;50.966;5.814;2023-06-22T02:31:26;6.50;;;6.50;;
20906;SDS011;10613;50.966;5.814;2023-06-22T02:35:37;8.25;;;8.25;;
20906;SDS011;10613;50.966;5.814;2023-06-22T02:39:44;5.25;;;5.25;;
20906;SDS011;10613;50.966;5.814;2023-06-22T02:43:51;8.50;;;5.75;;
20906;SDS011;10613;50.966;5.814;2023-06-22T02:47:58;5.25;;;5.25;;
20906;SDS011;10613;50.966;5.814;2023-06-22T02:52:05;6.25;;;6.25;;
20906;SDS011;10613;50.966;5.814;2023-06-22T02:56:12;5.75;;;5.75;;
20906;SDS011;10613;50.966;5.814;2023-06-22T03:00:19;8.25;;;6.00;;
20906;SDS011;10613;50.966;5.814;2023-06-22T03:04:26;8.00;;;8.00;;
20906;SDS011;10613;50.966;5.814;2023-06-22T03:08:33;11.50;;;9.25;;
20906;SDS011;10613;50.966;5.814;2023-06-22T03:12:40;10.50;;;7.75;;
20906;SDS011;10613;50.966;5.814;2023-06-22T03:16:48;7.00;;;7.00;;
20906;SDS011;10613;50.966;5.814;2023-06-22T03:20:55;9.00;;;8.00;;
20906;SDS011;10613;50.966;5.814;2023-06-22T03:25:02;9.75;;;8.25;;
20906;SDS011;10613;50.966;5.814;2023-06-22T03:29:30;11.50;;;10.25;;
20906;SDS011;10613;50.966;5.814;2023-06-22T03:33:37;9.75;;;9.50;;
20906;SDS011;10613;50.966;5.814;2023-06-22T03:37:44;11.25;;;9.50;;
20906;SDS011;10613;50.966;5.814;2023-06-22T03:41:51;10.25;;;9.00;;
20906;SDS011;10613;50.966;5.814;2023-06-22T03:45:58;9.50;;;9.50;;
20906;SDS011;10613;50.966;5.814;2023-06-22T03:50:05;9.25;;;7.00;;
20906;SDS011;10613;50.966;5.814;2023-06-22T03:54:12;11.25;;;11.00;;
20906;SDS011;10613;50.966;5.814;2023-06-22T03:58:20;9.50;;;9.00;;
20906;SDS011;10613;50.966;5.814;2023-06-22T04:02:27;10.25;;;10.00;;
20906;SDS011;10613;50.966;5.814;2023-06-22T04:06:34;13.00;;;13.00;;
20906;SDS011;10613;50.966;5.814;2023-06-22T04:10:41;9.00;;;9.00;;
20906;SDS011;10613;50.966;5.814;2023-06-22T04:14:48;14.25;;;14.25;;
20906;SDS011;10613;50.966;5.814;2023-06-22T04:18:55;10.75;;;9.00;;
20906;SDS011;10613;50.966;5.814;2023-06-22T04:23:02;11.00;;;10.75;;
20906;SDS011;10613;50.966;5.814;2023-06-22T04:27:09;11.25;;;10.00;;
20906;SDS011;10613;50.966;5.814;2023-06-22T04:31:16;10.00;;;9.00;;
20906;SDS011;10613;50.966;5.814;2023-06-22T04:35:23;13.00;;;10.75;;
20906;SDS011;10613;50.966;5.814;2023-06-22T04:39:30;13.25;;;11.25;;
20906;SDS011;10613;50.966;5.814;2023-06-22T04:43:38;11.75;;;11.50;;
20906;SDS011;10613;50.966;5.814;2023-06-22T04:47:45;11.25;;;11.00;;
20906;SDS011;10613;50.966;5.814;2023-06-22T04:51:52;12.50;;;10.75;;
20906;SDS011;10613;50.966;5.814;2023-06-22T04:56:01;11.25;;;10.00;;
20906;SDS011;10613;50.966;5.814;2023-06-22T05:00:11;8.75;;;8.75;;
20906;SDS011;10613;50.966;5.814;2023-06-22T05:04:19;10.50;;;10.50;;
20906;SDS011;10613;50.966;5.814;2023-06-22T05:08:26;10.00;;;10.00;;
20906;SDS011;10613;50.966;5.814;2023-06-22T05:12:35;10.75;;;10.75;;
20906;SDS011;10613;50.966;5.814;2023-06-22T05:16:42;14.25;;;13.00;;
20906;SDS011;10613;50.966;5.814;2023-06-22T05:20:49;9.50;;;9.50;;
20906;SDS011;10613;50.966;5.814;2023-06-22T05:24:56;14.75;;;12.00;;
20906;SDS011;10613;50.966;5.814;2023-06-22T05:29:03;11.75;;;11.75;;
20906;SDS011;10613;50.966;5.814;2023-06-22T05:33:10;13.25;;;11.50;;
20906;SDS011;10613;50.966;5.814;2023-06-22T05:37:17;19.00;;;16.75;;
20906;SDS011;10613;50.966;5.814;2023-06-22T05:41:24;18.50;;;16.50;;
20906;SDS011;10613;50.966;5.814;2023-06-22T05:45:31;19.25;;;17.25;;
20906;SDS011;10613;50.966;5.814;2023-06-22T05:49:38;17.25;;;16.50;;
20906;SDS011;10613;50.966;5.814;2023-06-22T05:53:45;17.50;;;15.50;;
20906;SDS011;10613;50.966;5.814;2023-06-22T05:57:56;19.75;;;17.50;;
20906;SDS011;10613;50.966;5.814;2023-06-22T06:02:03;17.00;;;17.00;;
20906;SDS011;10613;50.966;5.814;2023-06-22T06:06:11;20.00;;;18.50;;
20906;SDS011;10613;50.966;5.814;2023-06-22T06:10:18;19.75;;;16.00;;
20906;SDS011;10613;50.966;5.814;2023-06-22T06:14:25;16.00;;;16.00;;
20906;SDS011;10613;50.966;5.814;2023-06-22T06:18:32;20.25;;;16.75;;
20906;SDS011;10613;50.966;5.814;2023-06-22T06:22:39;15.25;;;14.00;;
20906;SDS011;10613;50.966;5.814;2023-06-22T06:26:46;19.00;;;13.50;;
20906;SDS011;10613;50.966;5.814;2023-06-22T06:30:53;16.75;;;15.50;;
20906;SDS011;10613;50.966;5.814;2023-06-22T06:35:00;14.50;;;12.50;;
20906;SDS011;10613;50.966;5.814;2023-06-22T06:39:07;15.75;;;15.75;;
20906;SDS011;10613;50.966;5.814;2023-06-22T06:43:15;12.25;;;11.25;;
20906;SDS011;10613;50.966;5.814;2023-06-22T06:47:22;14.25;;;14.25;;
20906;SDS011;10613;50.966;5.814;2023-06-22T06:51:29;12.00;;;11.00;;
20906;SDS011;10613;50.966;5.814;2023-06-22T06:55:36;16.25;;;15.75;;
20906;SDS011;10613;50.966;5.814;2023-06-22T06:59:43;13.25;;;13.00;;
20906;SDS011;10613;50.966;5.814;2023-06-22T07:03:50;14.50;;;12.75;;
20906;SDS011;10613;50.966;5.814;2023-06-22T07:07:57;14.75;;;14.75;;
20906;SDS011;10613;50.966;5.814;2023-06-22T07:12:04;13.75;;;12.75;;
20906;SDS011;10613;50.966;5.814;2023-06-22T07:16:11;14.00;;;14.00;;
20906;SDS011;10613;50.966;5.814;2023-06-22T07:20:18;16.50;;;15.25;;
20906;SDS011;10613;50.966;5.814;2023-06-22T07:24:26;14.00;;;14.00;;
20906;SDS011;10613;50.966;5.814;2023-06-22T07:28:33;14.25;;;14.25;;
20906;SDS011;10613;50.966;5.814;2023-06-22T07:32:44;12.00;;;12.00;;
20906;SDS011;10613;50.966;5.814;2023-06-22T07:36:51;8.00;;;8.00;;
20906;SDS011;10613;50.966;5.814;2023-06-22T07:40:58;10.75;;;10.00;;
20906;SDS011;10613;50.966;5.814;2023-06-22T07:45:06;10.00;;;10.00;;
20906;SDS011;10613;50.966;5.814;2023-06-22T07:49:15;10.00;;;9.00;;
20906;SDS011;10613;50.966;5.814;2023-06-22T07:53:21;10.50;;;9.50;;
20906;SDS011;10613;50.966;5.814;2023-06-22T07:57:29;11.75;;;10.50;;
20906;SDS011;10613;50.966;5.814;2023-06-22T08:01:40;15.00;;;14.50;;
20906;SDS011;10613;50.966;5.814;2023-06-22T08:05:47;9.00;;;9.00;;
20906;SDS011;10613;50.966;5.814;2023-06-22T08:09:54;9.25;;;8.00;;
20906;SDS011;10613;50.966;5.814;2023-06-22T08:14:01;11.00;;;9.75;;
20906;SDS011;10613;50.966;5.814;2023-06-22T08:18:15;6.50;;;6.25;;
20906;SDS011;10613;50.966;5.814;2023-06-22T08:22:22;7.25;;;7.25;;
20906;SDS011;10613;50.966;5.814;2023-06-22T08:26:29;7.50;;;7.50;;
20906;SDS011;10613;50.966;5.814;2023-06-22T08:30:39;9.00;;;9.00;;
20906;SDS011;10613;50.966;5.814;2023-06-22T08:34:46;8.00;;;6.00;;
20906;SDS011;10613;50.966;5.814;2023-06-22T08:38:53;9.25;;;9.25;;
20906;SDS011;10613;50.966;5.814;2023-06-22T08:43:00;9.25;;;6.75;;
20906;SDS011;10613;50.966;5.814;2023-06-22T08:47:07;7.00;;;7.00;;
20906;SDS011;10613;50.966;5.814;2023-06-22T08:51:14;7.50;;;7.50;;
20906;SDS011;10613;50.966;5.814;2023-06-22T08:55:21;5.50;;;5.50;;
20906;SDS011;10613;50.966;5.814;2023-06-22T08:59:28;6.00;;;6.00;;
20906;SDS011;10613;50.966;5.814;2023-06-22T09:03:35;6.00;;;6.00;;
20906;SDS011;10613;50.966;5.814;2023-06-22T09:07:43;6.00;;;6.00;;
20906;SDS011;10613;50.966;5.814;2023-06-22T09:11:50;5.75;;;5.75;;
20906;SDS011;10613;50.966;5.814;2023-06-22T09:15:57;7.50;;;7.50;;
20906;SDS011;10613;50.966;5.814;2023-06-22T09:20:04;6.50;;;6.50;;
20906;SDS011;10613;50.966;5.814;2023-06-22T09:24:19;5.25;;;5.25;;
20906;SDS011;10613;50.966;5.814;2023-06-22T09:28:26;5.25;;;5.25;;
20906;SDS011;10613;50.966;5.814;2023-06-22T09:32:33;4.50;;;4.50;;
20906;SDS011;10613;50.966;5.814;2023-06-22T09:36:43;5.25;;;5.25;;
20906;SDS011;10613;50.966;5.814;2023-06-22T09:40:50;8.75;;;5.75;;
20906;SDS011;10613;50.966;5.814;2023-06-22T09:44:57;6.00;;;6.00;;
20906;SDS011;10613;50.966;5.814;2023-06-22T09:49:04;9.50;;;9.50;;
20906;SDS011;10613;50.966;5.814;2023-06-22T09:53:11;14.25;;;13.75;;
20906;SDS011;10613;50.966;5.814;2023-06-22T09:57:18;5.75;;;5.00;;
20906;SDS011;10613;50.966;5.814;2023-06-22T10:01:25;14.50;;;12.00;;
20906;SDS011;10613;50.966;5.814;2023-06-22T10:05:32;13.00;;;13.00;;
20906;SDS011;10613;50.966;5.814;2023-06-22T10:09:39;5.75;;;5.75;;
20906;SDS011;10613;50.966;5.814;2023-06-22T10:13:46;7.00;;;6.25;;
20906;SDS011;10613;50.966;5.814;2023-06-22T10:17:53;21.50;;;20.50;;
20906;SDS011;10613;50.966;5.814;2023-06-22T10:22:00;29.25;;;28.25;;
20906;SDS011;10613;50.966;5.814;2023-06-22T10:26:07;31.00;;;28.50;;
20906;SDS011;10613;50.966;5.814;2023-06-22T10:30:14;21.50;;;20.50;;
20906;SDS011;10613;50.966;5.814;2023-06-22T10:34:21;25.75;;;21.50;;
20906;SDS011;10613;50.966;5.814;2023-06-22T10:38:28;25.00;;;21.25;;
20906;SDS011;10613;50.966;5.814;2023-06-22T10:42:35;16.25;;;15.75;;
20906;SDS011;10613;50.966;5.814;2023-06-22T10:46:42;7.25;;;7.00;;
20906;SDS011;10613;50.966;5.814;2023-06-22T10:50:49;25.25;;;22.25;;
20906;SDS011;10613;50.966;5.814;2023-06-22T10:54:56;21.25;;;19.50;;
20906;SDS011;10613;50.966;5.814;2023-06-22T10:59:03;18.75;;;18.25;;
20906;SDS011;10613;50.966;5.814;2023-06-22T11:03:10;7.75;;;5.50;;
20906;SDS011;10613;50.966;5.814;2023-06-22T11:07:20;23.25;;;19.50;;
20906;SDS011;10613;50.966;5.814;2023-06-22T11:11:26;7.00;;;6.00;;
20906;SDS011;10613;50.966;5.814;2023-06-22T11:15:33;6.00;;;6.00;;
20906;SDS011;10613;50.966;5.814;2023-06-22T11:19:40;8.25;;;7.75;;
20906;SDS011;10613;50.966;5.814;2023-06-22T11:23:47;6.50;;;5.50;;
20906;SDS011;10613;50.966;5.814;2023-06-22T11:27:54;5.50;;;5.00;;
20906;SDS011;10613;50.966;5.814;2023-06-22T11:32:01;6.00;;;6.00;;
20906;SDS011;10613;50.966;5.814;2023-06-22T11:36:08;8.00;;;6.00;;
20906;SDS011;10613;50.966;5.814;2023-06-22T11:40:15;6.25;;;6.25;;
20906;SDS011;10613;50.966;5.814;2023-06-22T11:44:23;8.00;;;8.00;;
20906;SDS011;10613;50.966;5.814;2023-06-22T11:48:30;9.50;;;9.50;;
20906;SDS011;10613;50.966;5.814;2023-06-22T11:52:37;8.00;;;8.00;;
20906;SDS011;10613;50.966;5.814;2023-06-22T11:56:44;6.00;;;6.00;;
20906;SDS011;10613;50.966;5.814;2023-06-22T12:00:51;7.00;;;7.00;;
20906;SDS011;10613;50.966;5.814;2023-06-22T12:04:58;8.00;;;8.00;;
20906;SDS011;10613;50.966;5.814;2023-06-22T12:09:09;7.00;;;7.00;;
20906;SDS011;10613;50.966;5.814;2023-06-22T12:13:15;9.50;;;9.50;;
20906;SDS011;10613;50.966;5.814;2023-06-22T12:17:22;8.50;;;8.50;;
20906;SDS011;10613;50.966;5.814;2023-06-22T12:21:29;11.00;;;11.00;;
20906;SDS011;10613;50.966;5.814;2023-06-22T12:25:36;8.25;;;8.25;;
20906;SDS011;10613;50.966;5.814;2023-06-22T12:29:47;13.00;;;11.50;;
20906;SDS011;10613;50.966;5.814;2023-06-22T12:33:53;8.50;;;8.50;;
20906;SDS011;10613;50.966;5.814;2023-06-22T12:38:00;11.00;;;9.75;;
20906;SDS011;10613;50.966;5.814;2023-06-22T12:42:08;9.25;;;9.25;;
20906;SDS011;10613;50.966;5.814;2023-06-22T12:46:15;12.00;;;11.25;;
20906;SDS011;10613;50.966;5.814;2023-06-22T12:50:23;11.00;;;11.00;;
20906;SDS011;10613;50.966;5.814;2023-06-22T12:54:29;12.00;;;11.50;;
20906;SDS011;10613;50.966;5.814;2023-06-22T12:58:36;10.50;;;10.50;;
20906;SDS011;10613;50.966;5.814;2023-06-22T13:02:43;10.00;;;10.00;;
20906;SDS011;10613;50.966;5.814;2023-06-22T13:06:50;12.75;;;11.25;;
20906;SDS011;10613;50.966;5.814;2023-06-22T13:10:58;13.50;;;12.25;;
20906;SDS011;10613;50.966;5.814;2023-06-22T13:15:05;13.50;;;13.50;;
20906;SDS011;10613;50.966;5.814;2023-06-22T13:19:12;14.00;;;13.50;;
20906;SDS011;10613;50.966;5.814;2023-06-22T13:23:21;13.50;;;12.00;;
20906;SDS011;10613;50.966;5.814;2023-06-22T13:27:28;14.00;;;13.50;;
20906;SDS011;10613;50.966;5.814;2023-06-22T13:31:35;13.25;;;12.00;;
20906;SDS011;10613;50.966;5.814;2023-06-22T13:35:42;13.00;;;13.00;;
20906;SDS011;10613;50.966;5.814;2023-06-22T13:39:52;12.50;;;12.00;;
20906;SDS011;10613;50.966;5.814;2023-06-22T13:43:59;12.75;;;12.75;;
20906;SDS011;10613;50.966;5.814;2023-06-22T13:48:06;18.50;;;16.50;;
20906;SDS011;10613;50.966;5.814;2023-06-22T13:52:13;17.75;;;16.50;;
20906;SDS011;10613;50.966;5.814;2023-06-22T13:56:20;13.75;;;13.75;;
20906;SDS011;10613;50.966;5.814;2023-06-22T14:00:27;19.00;;;17.25;;
20906;SDS011;10613;50.966;5.814;2023-06-22T14:04:34;17.50;;;16.50;;
20906;SDS011;10613;50.966;5.814;2023-06-22T14:08:41;19.75;;;18.75;;
20906;SDS011;10613;50.966;5.814;2023-06-22T14:12:55;21.00;;;19.00;;
20906;SDS011;10613;50.966;5.814;2023-06-22T14:17:02;21.00;;;19.75;;
20906;SDS011;10613;50.966;5.814;2023-06-22T14:21:10;21.00;;;19.00;;
20906;SDS011;10613;50.966;5.814;2023-06-22T14:25:17;19.00;;;17.00;;
20906;SDS011;10613;50.966;5.814;2023-06-22T14:29:25;20.75;;;18.75;;
20906;SDS011;10613;50.966;5.814;2023-06-22T14:33:32;17.25;;;16.75;;
20906;SDS011;10613;50.966;5.814;2023-06-22T14:37:39;25.00;;;21.25;;
20906;SDS011;10613;50.966;5.814;2023-06-22T14:41:46;23.25;;;20.75;;
20906;SDS011;10613;50.966;5.814;2023-06-22T14:45:53;20.25;;;19.25;;
20906;SDS011;10613;50.966;5.814;2023-06-22T14:50:00;20.25;;;19.25;;
20906;SDS011;10613;50.966;5.814;2023-06-22T14:54:14;25.25;;;21.00;;
20906;SDS011;10613;50.966;5.814;2023-06-22T14:58:21;22.00;;;20.25;;
20906;SDS011;10613;50.966;5.814;2023-06-22T15:02:28;36.75;;;31.75;;
20906;SDS011;10613;50.966;5.814;2023-06-22T15:06:35;33.00;;;27.75;;
20906;SDS011;10613;50.966;5.814;2023-06-22T15:10:42;26.50;;;23.25;;
20906;SDS011;10613;50.966;5.814;2023-06-22T15:14:49;21.50;;;19.25;;
20906;SDS011;10613;50.966;5.814;2023-06-22T15:18:56;25.25;;;21.00;;
20906;SDS011;10613;50.966;5.814;2023-06-22T15:23:03;18.25;;;18.00;;
20906;SDS011;10613;50.966;5.814;2023-06-22T15:27:10;24.75;;;20.25;;
20906;SDS011;10613;50.966;5.814;2023-06-22T15:31:17;17.00;;;15.50;;
20906;SDS011;10613;50.966;5.814;2023-06-22T15:35:24;18.50;;;17.50;;
20906;SDS011;10613;50.966;5.814;2023-06-22T15:39:31;16.00;;;14.00;;
20906;SDS011;10613;50.966;5.814;2023-06-22T15:43:38;20.00;;;18.00;;
20906;SDS011;10613;50.966;5.814;2023-06-22T15:47:45;18.00;;;17.50;;
20906;SDS011;10613;50.966;5.814;2023-06-22T15:51:52;19.50;;;19.50;;
20906;SDS011;10613;50.966;5.814;2023-06-22T15:55:59;15.50;;;14.75;;
20906;SDS011;10613;50.966;5.814;2023-06-22T16:00:06;15.50;;;15.50;;
20906;SDS011;10613;50.966;5.814;2023-06-22T16:04:14;12.50;;;12.50;;
20906;SDS011;10613;50.966;5.814;2023-06-22T16:08:21;15.75;;;15.50;;
20906;SDS011;10613;50.966;5.814;2023-06-22T16:12:28;16.00;;;15.50;;
20906;SDS011;10613;50.966;5.814;2023-06-22T16:16:36;14.25;;;14.25;;
20906;SDS011;10613;50.966;5.814;2023-06-22T16:20:43;16.75;;;15.50;;
20906;SDS011;10613;50.966;5.814;2023-06-22T16:24:50;15.50;;;14.00;;
20906;SDS011;10613;50.966;5.814;2023-06-22T16:28:57;14.25;;;12.00;;
20906;SDS011;10613;50.966;5.814;2023-06-22T16:33:04;13.25;;;13.25;;
20906;SDS011;10613;50.966;5.814;2023-06-22T16:37:11;15.00;;;13.75;;
20906;SDS011;10613;50.966;5.814;2023-06-22T16:41:18;15.00;;;14.75;;
20906;SDS011;10613;50.966;5.814;2023-06-22T16:45:25;11.00;;;11.00;;
20906;SDS011;10613;50.966;5.814;2023-06-22T16:49:32;15.25;;;11.75;;
20906;SDS011;10613;50.966;5.814;2023-06-22T16:53:39;13.75;;;12.50;;
20906;SDS011;10613;50.966;5.814;2023-06-22T16:57:47;13.50;;;13.00;;
20906;SDS011;10613;50.966;5.814;2023-06-22T17:01:56;11.50;;;11.50;;
20906;SDS011;10613;50.966;5.814;2023-06-22T17:06:03;14.75;;;14.75;;
20906;SDS011;10613;50.966;5.814;2023-06-22T17:10:10;12.00;;;11.00;;
20906;SDS011;10613;50.966;5.814;2023-06-22T17:14:17;13.50;;;13.50;;
20906;SDS011;10613;50.966;5.814;2023-06-22T17:18:24;11.00;;;11.00;;
20906;SDS011;10613;50.966;5.814;2023-06-22T17:22:32;12.00;;;12.00;;
20906;SDS011;10613;50.966;5.814;2023-06-22T17:26:44;11.25;;;11.00;;
20906;SDS011;10613;50.966;5.814;2023-06-22T17:31:09;14.00;;;12.75;;
20906;SDS011;10613;50.966;5.814;2023-06-22T17:35:19;12.25;;;11.00;;
20906;SDS011;10613;50.966;5.814;2023-06-22T17:39:26;14.50;;;14.25;;
20906;SDS011;10613;50.966;5.814;2023-06-22T17:43:42;14.25;;;12.75;;
20906;SDS011;10613;50.966;5.814;2023-06-22T17:47:49;15.25;;;15.25;;
20906;SDS011;10613;50.966;5.814;2023-06-22T17:51:57;15.25;;;13.25;;
20906;SDS011;10613;50.966;5.814;2023-06-22T17:56:04;15.25;;;15.00;;
20906;SDS011;10613;50.966;5.814;2023-06-22T18:00:11;15.75;;;15.75;;
20906;SDS011;10613;50.966;5.814;2023-06-22T18:04:18;10.50;;;9.75;;
20906;SDS011;10613;50.966;5.814;2023-06-22T18:08:26;12.00;;;12.00;;
20906;SDS011;10613;50.966;5.814;2023-06-22T18:12:34;10.75;;;9.50;;
20906;SDS011;10613;50.966;5.814;2023-06-22T18:16:45;14.50;;;14.25;;
20906;SDS011;10613;50.966;5.814;2023-06-22T18:20:52;13.75;;;12.00;;
20906;SDS011;10613;50.966;5.814;2023-06-22T18:25:00;17.50;;;13.25;;
20906;SDS011;10613;50.966;5.814;2023-06-22T18:29:09;14.75;;;14.25;;
20906;SDS011;10613;50.966;5.814;2023-06-22T18:33:16;16.25;;;13.75;;
20906;SDS011;10613;50.966;5.814;2023-06-22T18:37:23;14.00;;;14.00;;
20906;SDS011;10613;50.966;5.814;2023-06-22T18:45:42;15.00;;;14.75;;
20906;SDS011;10613;50.966;5.814;2023-06-22T18:49:50;13.00;;;13.00;;
20906;SDS011;10613;50.966;5.814;2023-06-22T18:54:02;16.00;;;14.00;;
20906;SDS011;10613;50.966;5.814;2023-06-22T18:58:14;16.00;;;14.25;;
20906;SDS011;10613;50.966;5.814;2023-06-22T19:11:11;15.00;;;15.00;;
20906;SDS011;10613;50.966;5.814;2023-06-22T19:15:19;27.75;;;22.50;;
20906;SDS011;10613;50.966;5.814;2023-06-22T19:19:27;25.00;;;23.00;;
20906;SDS011;10613;50.966;5.814;2023-06-22T19:23:35;21.75;;;20.25;;
20906;SDS011;10613;50.966;5.814;2023-06-22T19:27:46;19.25;;;18.50;;
20906;SDS011;10613;50.966;5.814;2023-06-22T19:31:53;22.75;;;22.00;;
20906;SDS011;10613;50.966;5.814;2023-06-22T19:36:00;20.50;;;19.50;;
20906;SDS011;10613;50.966;5.814;2023-06-22T19:40:13;22.50;;;21.50;;
20906;SDS011;10613;50.966;5.814;2023-06-22T19:44:20;29.25;;;24.75;;
20906;SDS011;10613;50.966;5.814;2023-06-22T19:48:34;21.50;;;21.50;;
20906;SDS011;10613;50.966;5.814;2023-06-22T19:52:42;29.75;;;25.75;;
20906;SDS011;10613;50.966;5.814;2023-06-22T19:56:56;24.75;;;24.00;;
20906;SDS011;10613;50.966;5.814;2023-06-22T20:01:03;19.25;;;18.25;;
20906;SDS011;10613;50.966;5.814;2023-06-22T20:05:11;28.50;;;27.00;;
20906;SDS011;10613;50.966;5.814;2023-06-22T20:09:19;23.75;;;22.50;;
20906;SDS011;10613;50.966;5.814;2023-06-22T20:13:26;31.00;;;29.75;;
20906;SDS011;10613;50.966;5.814;2023-06-22T20:17:39;25.50;;;21.75;;
20906;SDS011;10613;50.966;5.814;2023-06-22T20:21:46;25.00;;;24.00;;
20906;SDS011;10613;50.966;5.814;2023-06-22T20:25:53;23.75;;;23.25;;
20906;SDS011;10613;50.966;5.814;2023-06-22T20:30:11;23.75;;;23.25;;
20906;SDS011;10613;50.966;5.814;2023-06-22T20:34:21;29.00;;;28.25;;
20906;SDS011;10613;50.966;5.814;2023-06-22T20:38:28;26.25;;;23.25;;
20906;SDS011;10613;50.966;5.814;2023-06-22T20:42:37;30.00;;;25.25;;
20906;SDS011;10613;50.966;5.814;2023-06-22T20:46:44;22.25;;;21.25;;
20906;SDS011;10613;50.966;5.814;2023-06-22T20:50:52;29.25;;;22.75;;
20906;SDS011;10613;50.966;5.814;2023-06-22T20:55:03;21.75;;;18.25;;
20906;SDS011;10613;50.966;5.814;2023-06-22T20:59:10;28.00;;;26.75;;
20906;SDS011;10613;50.966;5.814;2023-06-22T21:03:17;16.00;;;14.00;;
20906;SDS011;10613;50.966;5.814;2023-06-22T21:07:24;24.00;;;21.75;;
20906;SDS011;10613;50.966;5.814;2023-06-22T21:11:31;18.00;;;16.75;;
20906;SDS011;10613;50.966;5.814;2023-06-22T21:15:38;18.00;;;18.00;;
20906;SDS011;10613;50.966;5.814;2023-06-22T21:19:45;16.75;;;16.50;;
20906;SDS011;10613;50.966;5.814;2023-06-22T21:23:52;19.50;;;19.00;;
20906;SDS011;10613;50.966;5.814;2023-06-22T21:27:59;21.75;;;19.75;;
20906;SDS011;10613;50.966;5.814;2023-06-22T21:32:14;20.00;;;15.25;;
20906;SDS011;10613;50.966;5.814;2023-06-22T21:36:35;21.75;;;17.00;;
20906;SDS011;10613;50.966;5.814;2023-06-22T21:40:42;24.25;;;19.25;;
20906;SDS011;10613;50.966;5.814;2023-06-22T21:44:49;20.50;;;20.50;;
20906;SDS011;10613;50.966;5.814;2023-06-22T21:48:56;18.25;;;15.50;;
20906;SDS011;10613;50.966;5.814;2023-06-22T21:53:03;14.75;;;14.25;;
20906;SDS011;10613;50.966;5.814;2023-06-22T21:57:10;17.25;;;17.25;;
20906;SDS011;10613;50.966;5.814;2023-06-22T22:01:17;22.50;;;19.75;;
20906;SDS011;10613;50.966;5.814;2023-06-22T22:05:24;16.50;;;16.50;;
20906;SDS011;10613;50.966;5.814;2023-06-22T22:09:31;19.00;;;17.50;;
20906;SDS011;10613;50.966;5.814;2023-06-22T22:13:38;26.25;;;24.00;;
20906;SDS011;10613;50.966;5.814;2023-06-22T22:17:47;24.50;;;20.50;;
20906;SDS011;10613;50.966;5.814;2023-06-22T22:21:54;27.00;;;25.50;;
20906;SDS011;10613;50.966;5.814;2023-06-22T22:26:01;30.25;;;26.50;;
20906;SDS011;10613;50.966;5.814;2023-06-22T22:30:08;18.00;;;18.00;;
20906;SDS011;10613;50.966;5.814;2023-06-22T22:34:16;33.75;;;29.25;;
20906;SDS011;10613;50.966;5.814;2023-06-22T22:38:23;25.00;;;21.50;;
20906;SDS011;10613;50.966;5.814;2023-06-22T22:42:30;23.50;;;22.75;;
20906;SDS011;10613;50.966;5.814;2023-06-22T22:46:39;28.50;;;27.00;;
20906;SDS011;10613;50.966;5.814;2023-06-22T22:50:46;19.00;;;19.00;;
20906;SDS011;10613;50.966;5.814;2023-06-22T22:54:56;27.00;;;23.75;;
20906;SDS011;10613;50.966;5.814;2023-06-22T22:59:03;26.50;;;21.75;;
20906;SDS011;10613;50.966;5.814;2023-06-22T23:03:10;21.75;;;21.00;;
20906;SDS011;10613;50.966;5.814;2023-06-22T23:07:17;21.75;;;19.00;;
20906;SDS011;10613;50.966;5.814;2023-06-22T23:11:26;16.75;;;16.50;;
20906;SDS011;10613;50.966;5.814;2023-06-22T23:15:33;25.50;;;22.75;;
20906;SDS011;10613;50.966;5.814;2023-06-22T23:19:40;20.00;;;20.00;;
20906;SDS011;10613;50.966;5.814;2023-06-22T23:23:48;17.25;;;16.50;;
20906;SDS011;10613;50.966;5.814;2023-06-22T23:27:55;21.75;;;19.50;;
20906;SDS011;10613;50.966;5.814;2023-06-22T23:32:06;25.00;;;20.50;;
20906;SDS011;10613;50.966;5.814;2023-06-22T23:36:16;28.00;;;25.25;;
20906;SDS011;10613;50.966;5.814;2023-06-22T23:40:23;26.50;;;21.50;;
20906;SDS011;10613;50.966;5.814;2023-06-22T23:44:30;17.75;;;16.75;;
20906;SDS011;10613;50.966;5.814;2023-06-22T23:48:37;15.50;;;15.50;;
20906;SDS011;10613;50.966;5.814;2023-06-22T23:52:44;23.75;;;23.75;;
20906;SDS011;10613;50.966;5.814;2023-06-22T23:56:54;17.75;;;16.50;;
